In Rescue
 
Open Full Screen Window  High Contrast Mode
Wind Gusting 24 knots
16
May 19, 2019 1:20 PM CDT
Weather Information
Wind Direction
  050 °
Wind Speed
  16 kt (18 mph)
Wind Gust
  24 kt (28 mph)
Altimeter
30.03 in
Visibility
10 SM
Temperature
12° C
54° F
Dewpoint
-02° C
28° F
Humidity
38%
1hr Rain Fall
00.00 in.
24hr Rain Fall
00.00 in.
Sky Condition
Clear
VFR

METAR KROX 191820Z AUTO 05016G24KT 10SM CLR 12/M02 A3003 RMK AO2

FAA Disclaimer: The data displayed is for advisory purposes only and is not to be used for flight planning or operations.